sensor_id;sensor_type;location;lat;lon;timestamp;P1;durP1;ratioP1;P2;durP2;ratioP2
3755;SDS011;1893;52.526;13.360;2023-02-17T00:01:19;37.80;;;22.73;;
3755;SDS011;1893;52.526;13.360;2023-02-17T00:03:50;37.30;;;22.33;;
3755;SDS011;1893;52.526;13.360;2023-02-17T00:06:18;36.77;;;22.53;;
3755;SDS011;1893;52.526;13.360;2023-02-17T00:08:47;39.23;;;22.30;;
3755;SDS011;1893;52.526;13.360;2023-02-17T00:11:13;35.33;;;22.80;;
3755;SDS011;1893;52.526;13.360;2023-02-17T00:13:39;40.80;;;24.27;;
3755;SDS011;1893;52.526;13.360;2023-02-17T00:16:07;41.70;;;24.33;;
3755;SDS011;1893;52.526;13.360;2023-02-17T00:18:34;38.70;;;23.73;;
3755;SDS011;1893;52.526;13.360;2023-02-17T00:21:09;39.73;;;24.00;;
3755;SDS011;1893;52.526;13.360;2023-02-17T00:23:35;43.43;;;26.27;;
3755;SDS011;1893;52.526;13.360;2023-02-17T00:26:03;40.60;;;26.63;;
3755;SDS011;1893;52.526;13.360;2023-02-17T00:28:29;41.67;;;25.37;;
3755;SDS011;1893;52.526;13.360;2023-02-17T00:30:55;43.43;;;25.90;;
3755;SDS011;1893;52.526;13.360;2023-02-17T00:33:20;48.00;;;25.60;;
3755;SDS011;1893;52.526;13.360;2023-02-17T00:35:46;42.23;;;26.23;;
3755;SDS011;1893;52.526;13.360;2023-02-17T00:38:12;43.30;;;24.10;;
3755;SDS011;1893;52.526;13.360;2023-02-17T00:40:37;43.73;;;26.13;;
3755;SDS011;1893;52.526;13.360;2023-02-17T00:43:03;51.73;;;28.20;;
3755;SDS011;1893;52.526;13.360;2023-02-17T00:45:28;41.87;;;24.60;;
3755;SDS011;1893;52.526;13.360;2023-02-17T00:47:54;45.63;;;25.83;;
3755;SDS011;1893;52.526;13.360;2023-02-17T00:50:19;52.73;;;27.00;;
3755;SDS011;1893;52.526;13.360;2023-02-17T00:52:45;45.90;;;24.80;;
3755;SDS011;1893;52.526;13.360;2023-02-17T00:55:11;46.30;;;26.57;;
3755;SDS011;1893;52.526;13.360;2023-02-17T00:57:36;45.30;;;25.07;;
3755;SDS011;1893;52.526;13.360;2023-02-17T01:00:02;44.63;;;27.37;;
3755;SDS011;1893;52.526;13.360;2023-02-17T01:02:29;47.43;;;25.50;;
3755;SDS011;1893;52.526;13.360;2023-02-17T01:04:55;43.97;;;27.17;;
3755;SDS011;1893;52.526;13.360;2023-02-17T01:07:20;47.13;;;25.93;;
3755;SDS011;1893;52.526;13.360;2023-02-17T01:09:46;44.27;;;25.60;;
3755;SDS011;1893;52.526;13.360;2023-02-17T01:12:11;51.07;;;27.47;;
3755;SDS011;1893;52.526;13.360;2023-02-17T01:14:37;50.50;;;28.30;;
3755;SDS011;1893;52.526;13.360;2023-02-17T01:17:03;43.23;;;23.57;;
3755;SDS011;1893;52.526;13.360;2023-02-17T01:19:28;49.20;;;24.97;;
3755;SDS011;1893;52.526;13.360;2023-02-17T01:21:54;50.40;;;27.20;;
3755;SDS011;1893;52.526;13.360;2023-02-17T01:24:19;47.10;;;27.10;;
3755;SDS011;1893;52.526;13.360;2023-02-17T01:26:45;40.53;;;25.70;;
3755;SDS011;1893;52.526;13.360;2023-02-17T01:29:11;42.07;;;24.30;;
3755;SDS011;1893;52.526;13.360;2023-02-17T01:31:38;47.00;;;24.97;;
3755;SDS011;1893;52.526;13.360;2023-02-17T01:34:04;44.00;;;25.97;;
3755;SDS011;1893;52.526;13.360;2023-02-17T01:36:30;41.27;;;26.73;;
3755;SDS011;1893;52.526;13.360;2023-02-17T01:38:56;42.77;;;25.23;;
3755;SDS011;1893;52.526;13.360;2023-02-17T01:41:22;44.53;;;24.23;;
3755;SDS011;1893;52.526;13.360;2023-02-17T01:44:08;40.70;;;23.97;;
3755;SDS011;1893;52.526;13.360;2023-02-17T01:46:38;44.90;;;25.80;;
3755;SDS011;1893;52.526;13.360;2023-02-17T01:49:12;39.50;;;22.70;;
3755;SDS011;1893;52.526;13.360;2023-02-17T01:51:42;47.13;;;25.20;;
3755;SDS011;1893;52.526;13.360;2023-02-17T01:54:12;44.50;;;25.40;;
3755;SDS011;1893;52.526;13.360;2023-02-17T01:56:43;49.43;;;25.47;;
3755;SDS011;1893;52.526;13.360;2023-02-17T01:59:16;46.67;;;26.30;;
3755;SDS011;1893;52.526;13.360;2023-02-17T02:01:44;44.40;;;25.67;;
3755;SDS011;1893;52.526;13.360;2023-02-17T02:04:12;44.53;;;25.30;;
3755;SDS011;1893;52.526;13.360;2023-02-17T02:06:41;45.97;;;26.90;;
3755;SDS011;1893;52.526;13.360;2023-02-17T02:09:09;44.13;;;25.70;;
3755;SDS011;1893;52.526;13.360;2023-02-17T02:11:47;51.47;;;26.47;;
3755;SDS011;1893;52.526;13.360;2023-02-17T02:14:13;48.50;;;26.40;;
3755;SDS011;1893;52.526;13.360;2023-02-17T02:22:30;51.07;;;29.90;;
3755;SDS011;1893;52.526;13.360;2023-02-17T02:33:51;60.17;;;30.67;;
3755;SDS011;1893;52.526;13.360;2023-02-17T02:36:23;62.33;;;31.37;;
3755;SDS011;1893;52.526;13.360;2023-02-17T02:38:59;55.30;;;31.07;;
3755;SDS011;1893;52.526;13.360;2023-02-17T02:41:53;59.47;;;33.20;;
3755;SDS011;1893;52.526;13.360;2023-02-17T02:44:19;66.50;;;36.10;;
3755;SDS011;1893;52.526;13.360;2023-02-17T02:46:54;66.83;;;32.50;;
3755;SDS011;1893;52.526;13.360;2023-02-17T02:49:27;59.50;;;32.20;;
3755;SDS011;1893;52.526;13.360;2023-02-17T02:54:40;63.97;;;33.80;;
3755;SDS011;1893;52.526;13.360;2023-02-17T02:57:36;62.77;;;34.20;;
3755;SDS011;1893;52.526;13.360;2023-02-17T03:07:55;72.57;;;35.57;;
3755;SDS011;1893;52.526;13.360;2023-02-17T03:10:28;71.03;;;33.63;;
3755;SDS011;1893;52.526;13.360;2023-02-17T03:12:55;63.13;;;33.70;;
3755;SDS011;1893;52.526;13.360;2023-02-17T03:15:29;72.37;;;34.53;;
3755;SDS011;1893;52.526;13.360;2023-02-17T03:17:58;75.60;;;34.10;;
3755;SDS011;1893;52.526;13.360;2023-02-17T03:20:25;66.20;;;33.10;;
3755;SDS011;1893;52.526;13.360;2023-02-17T03:22:53;67.70;;;34.63;;
3755;SDS011;1893;52.526;13.360;2023-02-17T03:25:19;74.77;;;35.10;;
3755;SDS011;1893;52.526;13.360;2023-02-17T03:27:45;66.53;;;34.33;;
3755;SDS011;1893;52.526;13.360;2023-02-17T03:30:11;68.63;;;34.83;;
3755;SDS011;1893;52.526;13.360;2023-02-17T03:32:37;71.13;;;33.50;;
3755;SDS011;1893;52.526;13.360;2023-02-17T03:35:02;71.00;;;33.30;;
3755;SDS011;1893;52.526;13.360;2023-02-17T03:37:28;73.17;;;35.30;;
3755;SDS011;1893;52.526;13.360;2023-02-17T03:39:54;63.00;;;33.63;;
3755;SDS011;1893;52.526;13.360;2023-02-17T03:42:19;67.67;;;35.10;;
3755;SDS011;1893;52.526;13.360;2023-02-17T03:44:45;64.13;;;34.23;;
3755;SDS011;1893;52.526;13.360;2023-02-17T03:47:11;74.50;;;34.03;;
3755;SDS011;1893;52.526;13.360;2023-02-17T03:49:36;66.00;;;36.40;;
3755;SDS011;1893;52.526;13.360;2023-02-17T03:52:02;74.53;;;35.10;;
3755;SDS011;1893;52.526;13.360;2023-02-17T03:54:28;74.97;;;35.97;;
3755;SDS011;1893;52.526;13.360;2023-02-17T03:56:53;71.43;;;35.43;;
3755;SDS011;1893;52.526;13.360;2023-02-17T03:59:19;72.57;;;36.60;;
3755;SDS011;1893;52.526;13.360;2023-02-17T04:01:44;69.03;;;34.73;;
3755;SDS011;1893;52.526;13.360;2023-02-17T04:04:10;71.43;;;36.87;;
3755;SDS011;1893;52.526;13.360;2023-02-17T04:06:36;74.57;;;35.77;;
3755;SDS011;1893;52.526;13.360;2023-02-17T04:09:02;66.93;;;35.33;;
3755;SDS011;1893;52.526;13.360;2023-02-17T04:11:28;74.00;;;37.10;;
3755;SDS011;1893;52.526;13.360;2023-02-17T04:13:53;71.33;;;33.73;;
3755;SDS011;1893;52.526;13.360;2023-02-17T04:16:19;84.80;;;37.80;;
3755;SDS011;1893;52.526;13.360;2023-02-17T04:18:45;65.60;;;31.33;;
3755;SDS011;1893;52.526;13.360;2023-02-17T04:21:10;74.00;;;36.97;;
3755;SDS011;1893;52.526;13.360;2023-02-17T04:23:36;68.30;;;35.27;;
3755;SDS011;1893;52.526;13.360;2023-02-17T04:26:03;62.77;;;33.93;;
3755;SDS011;1893;52.526;13.360;2023-02-17T04:28:29;71.33;;;32.37;;
3755;SDS011;1893;52.526;13.360;2023-02-17T04:30:56;65.40;;;33.83;;
3755;SDS011;1893;52.526;13.360;2023-02-17T04:33:22;66.73;;;32.07;;
3755;SDS011;1893;52.526;13.360;2023-02-17T04:35:48;67.67;;;35.00;;
3755;SDS011;1893;52.526;13.360;2023-02-17T04:38:14;69.47;;;33.27;;
3755;SDS011;1893;52.526;13.360;2023-02-17T04:40:40;68.70;;;32.93;;
3755;SDS011;1893;52.526;13.360;2023-02-17T04:43:06;70.33;;;35.13;;
3755;SDS011;1893;52.526;13.360;2023-02-17T04:45:32;65.50;;;34.10;;
3755;SDS011;1893;52.526;13.360;2023-02-17T04:47:59;67.00;;;33.00;;
3755;SDS011;1893;52.526;13.360;2023-02-17T04:50:25;64.27;;;32.10;;
3755;SDS011;1893;52.526;13.360;2023-02-17T04:52:50;70.33;;;33.37;;
3755;SDS011;1893;52.526;13.360;2023-02-17T04:55:16;58.83;;;33.23;;
3755;SDS011;1893;52.526;13.360;2023-02-17T04:57:42;55.60;;;31.60;;
3755;SDS011;1893;52.526;13.360;2023-02-17T05:00:07;61.63;;;32.43;;
3755;SDS011;1893;52.526;13.360;2023-02-17T05:02:34;59.13;;;31.10;;
3755;SDS011;1893;52.526;13.360;2023-02-17T05:04:59;62.53;;;32.50;;
3755;SDS011;1893;52.526;13.360;2023-02-17T05:07:25;63.60;;;30.50;;
3755;SDS011;1893;52.526;13.360;2023-02-17T05:09:50;58.73;;;31.60;;
3755;SDS011;1893;52.526;13.360;2023-02-17T05:12:18;61.77;;;31.10;;
3755;SDS011;1893;52.526;13.360;2023-02-17T05:14:43;58.77;;;31.93;;
3755;SDS011;1893;52.526;13.360;2023-02-17T05:17:09;67.53;;;34.60;;
3755;SDS011;1893;52.526;13.360;2023-02-17T05:19:34;57.37;;;30.87;;
3755;SDS011;1893;52.526;13.360;2023-02-17T05:22:00;62.23;;;30.80;;
3755;SDS011;1893;52.526;13.360;2023-02-17T05:24:26;61.20;;;33.57;;
3755;SDS011;1893;52.526;13.360;2023-02-17T05:26:51;64.60;;;33.33;;
3755;SDS011;1893;52.526;13.360;2023-02-17T05:29:17;64.27;;;33.83;;
3755;SDS011;1893;52.526;13.360;2023-02-17T05:31:42;71.20;;;34.60;;
3755;SDS011;1893;52.526;13.360;2023-02-17T05:34:08;70.23;;;34.83;;
3755;SDS011;1893;52.526;13.360;2023-02-17T05:36:34;68.97;;;35.10;;
3755;SDS011;1893;52.526;13.360;2023-02-17T05:38:59;56.97;;;31.23;;
3755;SDS011;1893;52.526;13.360;2023-02-17T05:41:25;63.80;;;33.53;;
3755;SDS011;1893;52.526;13.360;2023-02-17T05:43:51;66.13;;;32.47;;
3755;SDS011;1893;52.526;13.360;2023-02-17T05:46:16;66.37;;;32.30;;
3755;SDS011;1893;52.526;13.360;2023-02-17T05:48:42;61.93;;;33.27;;
3755;SDS011;1893;52.526;13.360;2023-02-17T05:51:08;63.00;;;32.30;;
3755;SDS011;1893;52.526;13.360;2023-02-17T05:53:33;64.73;;;34.47;;
3755;SDS011;1893;52.526;13.360;2023-02-17T05:55:59;59.87;;;31.80;;
3755;SDS011;1893;52.526;13.360;2023-02-17T05:58:25;56.17;;;31.33;;
3755;SDS011;1893;52.526;13.360;2023-02-17T06:00:51;62.90;;;33.03;;
3755;SDS011;1893;52.526;13.360;2023-02-17T06:03:16;58.30;;;32.27;;
3755;SDS011;1893;52.526;13.360;2023-02-17T06:05:43;60.90;;;32.13;;
3755;SDS011;1893;52.526;13.360;2023-02-17T06:08:09;64.77;;;33.67;;
3755;SDS011;1893;52.526;13.360;2023-02-17T06:10:35;66.57;;;32.60;;
3755;SDS011;1893;52.526;13.360;2023-02-17T06:13:01;57.20;;;31.90;;
3755;SDS011;1893;52.526;13.360;2023-02-17T06:15:26;56.77;;;30.97;;
3755;SDS011;1893;52.526;13.360;2023-02-17T06:17:53;55.23;;;30.40;;
3755;SDS011;1893;52.526;13.360;2023-02-17T06:20:19;62.20;;;31.27;;
3755;SDS011;1893;52.526;13.360;2023-02-17T06:22:44;63.73;;;31.07;;
3755;SDS011;1893;52.526;13.360;2023-02-17T06:25:10;55.77;;;31.17;;
3755;SDS011;1893;52.526;13.360;2023-02-17T06:27:36;56.67;;;30.70;;
3755;SDS011;1893;52.526;13.360;2023-02-17T06:30:01;66.33;;;31.00;;
3755;SDS011;1893;52.526;13.360;2023-02-17T06:32:27;61.13;;;31.77;;
3755;SDS011;1893;52.526;13.360;2023-02-17T06:34:53;57.03;;;29.10;;
3755;SDS011;1893;52.526;13.360;2023-02-17T06:37:19;48.70;;;29.37;;
3755;SDS011;1893;52.526;13.360;2023-02-17T06:39:44;57.27;;;30.67;;
3755;SDS011;1893;52.526;13.360;2023-02-17T06:42:10;62.03;;;32.53;;
3755;SDS011;1893;52.526;13.360;2023-02-17T06:44:35;49.27;;;29.83;;
3755;SDS011;1893;52.526;13.360;2023-02-17T06:47:01;54.43;;;29.90;;
3755;SDS011;1893;52.526;13.360;2023-02-17T06:49:28;49.73;;;28.57;;
3755;SDS011;1893;52.526;13.360;2023-02-17T06:51:53;49.13;;;27.90;;
3755;SDS011;1893;52.526;13.360;2023-02-17T06:54:19;51.03;;;28.63;;
3755;SDS011;1893;52.526;13.360;2023-02-17T06:56:44;51.23;;;26.93;;
3755;SDS011;1893;52.526;13.360;2023-02-17T06:59:10;49.53;;;28.00;;
3755;SDS011;1893;52.526;13.360;2023-02-17T07:01:36;50.70;;;27.23;;
3755;SDS011;1893;52.526;13.360;2023-02-17T07:04:02;48.23;;;28.10;;
3755;SDS011;1893;52.526;13.360;2023-02-17T07:06:28;44.27;;;26.57;;
3755;SDS011;1893;52.526;13.360;2023-02-17T07:08:54;48.00;;;28.03;;
3755;SDS011;1893;52.526;13.360;2023-02-17T07:11:19;54.83;;;27.00;;
3755;SDS011;1893;52.526;13.360;2023-02-17T07:13:45;41.67;;;26.03;;
3755;SDS011;1893;52.526;13.360;2023-02-17T07:16:11;44.03;;;25.80;;
3755;SDS011;1893;52.526;13.360;2023-02-17T07:18:38;43.57;;;24.40;;
3755;SDS011;1893;52.526;13.360;2023-02-17T07:21:05;50.83;;;26.30;;
3755;SDS011;1893;52.526;13.360;2023-02-17T07:23:32;40.77;;;23.67;;
3755;SDS011;1893;52.526;13.360;2023-02-17T07:26:02;40.03;;;23.97;;
3755;SDS011;1893;52.526;13.360;2023-02-17T07:28:29;38.67;;;24.00;;
3755;SDS011;1893;52.526;13.360;2023-02-17T07:30:55;41.53;;;24.20;;
3755;SDS011;1893;52.526;13.360;2023-02-17T07:33:20;39.20;;;21.83;;
3755;SDS011;1893;52.526;13.360;2023-02-17T07:35:46;39.93;;;22.30;;
3755;SDS011;1893;52.526;13.360;2023-02-17T07:38:12;38.40;;;22.77;;
3755;SDS011;1893;52.526;13.360;2023-02-17T07:40:38;34.10;;;21.80;;
3755;SDS011;1893;52.526;13.360;2023-02-17T07:43:04;37.00;;;22.63;;
3755;SDS011;1893;52.526;13.360;2023-02-17T07:45:30;30.70;;;20.53;;
3755;SDS011;1893;52.526;13.360;2023-02-17T07:47:55;35.67;;;20.90;;
3755;SDS011;1893;52.526;13.360;2023-02-17T07:50:21;32.70;;;20.67;;
3755;SDS011;1893;52.526;13.360;2023-02-17T07:52:46;29.70;;;20.20;;
3755;SDS011;1893;52.526;13.360;2023-02-17T07:55:12;35.43;;;21.20;;
3755;SDS011;1893;52.526;13.360;2023-02-17T07:57:38;30.77;;;19.67;;
3755;SDS011;1893;52.526;13.360;2023-02-17T08:00:04;31.50;;;19.80;;
3755;SDS011;1893;52.526;13.360;2023-02-17T08:02:30;27.63;;;18.00;;
3755;SDS011;1893;52.526;13.360;2023-02-17T08:04:56;31.87;;;19.30;;
3755;SDS011;1893;52.526;13.360;2023-02-17T08:07:21;27.30;;;17.37;;
3755;SDS011;1893;52.526;13.360;2023-02-17T08:09:47;35.17;;;19.17;;
3755;SDS011;1893;52.526;13.360;2023-02-17T08:12:31;26.80;;;18.30;;
3755;SDS011;1893;52.526;13.360;2023-02-17T08:15:15;28.47;;;17.30;;
3755;SDS011;1893;52.526;13.360;2023-02-17T08:17:40;31.13;;;19.10;;
3755;SDS011;1893;52.526;13.360;2023-02-17T08:20:07;27.73;;;17.17;;
3755;SDS011;1893;52.526;13.360;2023-02-17T08:22:33;28.67;;;17.97;;
3755;SDS011;1893;52.526;13.360;2023-02-17T08:24:58;28.77;;;16.77;;
3755;SDS011;1893;52.526;13.360;2023-02-17T08:27:24;29.00;;;17.30;;
3755;SDS011;1893;52.526;13.360;2023-02-17T08:29:50;24.10;;;16.30;;
3755;SDS011;1893;52.526;13.360;2023-02-17T08:32:15;26.23;;;16.87;;
3755;SDS011;1893;52.526;13.360;2023-02-17T08:34:41;31.50;;;16.60;;
3755;SDS011;1893;52.526;13.360;2023-02-17T08:37:07;26.43;;;16.60;;
3755;SDS011;1893;52.526;13.360;2023-02-17T08:39:33;26.47;;;16.77;;
3755;SDS011;1893;52.526;13.360;2023-02-17T08:41:59;30.53;;;15.80;;
3755;SDS011;1893;52.526;13.360;2023-02-17T08:44:25;26.47;;;16.13;;
3755;SDS011;1893;52.526;13.360;2023-02-17T08:46:51;28.33;;;17.00;;
3755;SDS011;1893;52.526;13.360;2023-02-17T08:49:18;27.90;;;17.60;;
3755;SDS011;1893;52.526;13.360;2023-02-17T08:51:46;25.43;;;17.80;;
3755;SDS011;1893;52.526;13.360;2023-02-17T08:54:13;26.53;;;16.70;;
3755;SDS011;1893;52.526;13.360;2023-02-17T08:56:39;26.27;;;17.20;;
3755;SDS011;1893;52.526;13.360;2023-02-17T08:59:06;24.63;;;16.23;;
3755;SDS011;1893;52.526;13.360;2023-02-17T09:01:34;27.37;;;15.90;;
3755;SDS011;1893;52.526;13.360;2023-02-17T09:04:01;24.53;;;17.00;;
3755;SDS011;1893;52.526;13.360;2023-02-17T09:06:31;30.33;;;17.60;;
3755;SDS011;1893;52.526;13.360;2023-02-17T09:08:57;29.33;;;17.23;;
3755;SDS011;1893;52.526;13.360;2023-02-17T09:11:23;29.40;;;17.90;;
3755;SDS011;1893;52.526;13.360;2023-02-17T09:13:49;31.63;;;18.00;;
3755;SDS011;1893;52.526;13.360;2023-02-17T09:16:14;23.80;;;16.77;;
3755;SDS011;1893;52.526;13.360;2023-02-17T09:18:42;28.03;;;18.60;;
3755;SDS011;1893;52.526;13.360;2023-02-17T09:21:09;31.13;;;18.57;;
3755;SDS011;1893;52.526;13.360;2023-02-17T09:23:36;32.73;;;20.07;;
3755;SDS011;1893;52.526;13.360;2023-02-17T09:26:06;26.57;;;18.23;;
3755;SDS011;1893;52.526;13.360;2023-02-17T09:28:34;32.57;;;18.90;;
3755;SDS011;1893;52.526;13.360;2023-02-17T09:33:47;30.47;;;19.37;;
3755;SDS011;1893;52.526;13.360;2023-02-17T09:36:36;33.27;;;19.90;;
3755;SDS011;1893;52.526;13.360;2023-02-17T09:39:03;29.47;;;19.67;;
3755;SDS011;1893;52.526;13.360;2023-02-17T09:41:48;31.30;;;19.90;;
3755;SDS011;1893;52.526;13.360;2023-02-17T09:44:21;28.87;;;19.17;;
3755;SDS011;1893;52.526;13.360;2023-02-17T09:46:56;32.20;;;18.90;;
3755;SDS011;1893;52.526;13.360;2023-02-17T09:49:24;30.40;;;18.33;;
3755;SDS011;1893;52.526;13.360;2023-02-17T09:54:52;34.80;;;21.20;;
3755;SDS011;1893;52.526;13.360;2023-02-17T09:57:34;33.83;;;19.83;;
3755;SDS011;1893;52.526;13.360;2023-02-17T10:00:13;33.33;;;20.20;;
3755;SDS011;1893;52.526;13.360;2023-02-17T10:02:45;37.57;;;21.63;;
3755;SDS011;1893;52.526;13.360;2023-02-17T10:05:19;32.13;;;20.67;;
3755;SDS011;1893;52.526;13.360;2023-02-17T10:07:56;32.63;;;20.83;;
3755;SDS011;1893;52.526;13.360;2023-02-17T10:10:43;33.50;;;21.37;;
3755;SDS011;1893;52.526;13.360;2023-02-17T10:13:19;38.33;;;22.53;;
3755;SDS011;1893;52.526;13.360;2023-02-17T10:15:50;35.57;;;20.90;;
3755;SDS011;1893;52.526;13.360;2023-02-17T10:20:59;37.80;;;22.90;;
3755;SDS011;1893;52.526;13.360;2023-02-17T10:23:31;35.50;;;22.13;;
3755;SDS011;1893;52.526;13.360;2023-02-17T10:26:13;36.70;;;22.97;;
3755;SDS011;1893;52.526;13.360;2023-02-17T10:29:05;37.20;;;23.07;;
3755;SDS011;1893;52.526;13.360;2023-02-17T10:37:00;39.47;;;21.77;;
3755;SDS011;1893;52.526;13.360;2023-02-17T10:39:38;40.40;;;23.50;;
3755;SDS011;1893;52.526;13.360;2023-02-17T10:42:07;41.70;;;24.20;;
3755;SDS011;1893;52.526;13.360;2023-02-17T10:44:45;34.70;;;23.03;;
3755;SDS011;1893;52.526;13.360;2023-02-17T10:47:14;35.97;;;22.10;;
3755;SDS011;1893;52.526;13.360;2023-02-17T10:49:41;37.80;;;23.90;;
3755;SDS011;1893;52.526;13.360;2023-02-17T10:52:21;43.23;;;23.77;;
3755;SDS011;1893;52.526;13.360;2023-02-17T10:54:53;34.87;;;21.70;;
3755;SDS011;1893;52.526;13.360;2023-02-17T10:57:41;35.30;;;23.10;;
3755;SDS011;1893;52.526;13.360;2023-02-17T11:00:14;32.67;;;21.40;;
3755;SDS011;1893;52.526;13.360;2023-02-17T11:02:45;32.13;;;21.37;;
3755;SDS011;1893;52.526;13.360;2023-02-17T11:05:22;33.73;;;20.47;;
3755;SDS011;1893;52.526;13.360;2023-02-17T11:07:55;30.73;;;18.87;;
3755;SDS011;1893;52.526;13.360;2023-02-17T11:10:32;32.33;;;20.67;;
3755;SDS011;1893;52.526;13.360;2023-02-17T11:13:01;34.50;;;22.10;;
3755;SDS011;1893;52.526;13.360;2023-02-17T11:15:31;33.80;;;21.43;;
3755;SDS011;1893;52.526;13.360;2023-02-17T11:18:00;32.10;;;21.30;;
3755;SDS011;1893;52.526;13.360;2023-02-17T11:20:34;31.80;;;20.13;;
3755;SDS011;1893;52.526;13.360;2023-02-17T11:23:05;28.67;;;19.20;;
3755;SDS011;1893;52.526;13.360;2023-02-17T11:25:32;28.23;;;20.30;;
3755;SDS011;1893;52.526;13.360;2023-02-17T11:28:03;30.67;;;19.00;;
3755;SDS011;1893;52.526;13.360;2023-02-17T11:30:32;33.40;;;19.20;;
3755;SDS011;1893;52.526;13.360;2023-02-17T11:33:09;29.67;;;20.33;;
3755;SDS011;1893;52.526;13.360;2023-02-17T11:35:50;28.73;;;18.40;;
3755;SDS011;1893;52.526;13.360;2023-02-17T11:38:19;31.60;;;19.37;;
3755;SDS011;1893;52.526;13.360;2023-02-17T11:41:06;27.90;;;17.73;;
3755;SDS011;1893;52.526;13.360;2023-02-17T11:43:32;25.70;;;17.20;;
3755;SDS011;1893;52.526;13.360;2023-02-17T11:48:44;24.13;;;14.93;;
3755;SDS011;1893;52.526;13.360;2023-02-17T12:02:40;23.10;;;15.77;;
3755;SDS011;1893;52.526;13.360;2023-02-17T12:16:38;19.00;;;13.80;;
3755;SDS011;1893;52.526;13.360;2023-02-17T12:22:31;20.13;;;13.80;;
3755;SDS011;1893;52.526;13.360;2023-02-17T12:27:57;19.33;;;13.70;;
3755;SDS011;1893;52.526;13.360;2023-02-17T12:33:49;16.10;;;10.53;;
3755;SDS011;1893;52.526;13.360;2023-02-17T12:36:32;15.57;;;11.70;;
3755;SDS011;1893;52.526;13.360;2023-02-17T12:39:43;14.77;;;10.60;;
3755;SDS011;1893;52.526;13.360;2023-02-17T12:44:38;12.80;;;10.00;;
3755;SDS011;1893;52.526;13.360;2023-02-17T12:47:11;13.17;;;9.07;;
3755;SDS011;1893;52.526;13.360;2023-02-17T12:50:05;12.77;;;8.73;;
3755;SDS011;1893;52.526;13.360;2023-02-17T12:52:49;12.30;;;8.60;;
3755;SDS011;1893;52.526;13.360;2023-02-17T12:55:21;11.57;;;9.63;;
3755;SDS011;1893;52.526;13.360;2023-02-17T12:57:58;12.77;;;10.27;;
3755;SDS011;1893;52.526;13.360;2023-02-17T13:00:38;11.53;;;10.00;;
3755;SDS011;1893;52.526;13.360;2023-02-17T13:03:10;9.67;;;7.87;;
3755;SDS011;1893;52.526;13.360;2023-02-17T13:05:45;8.50;;;6.90;;
3755;SDS011;1893;52.526;13.360;2023-02-17T13:10:45;11.50;;;9.30;;
3755;SDS011;1893;52.526;13.360;2023-02-17T13:13:27;10.13;;;7.73;;
3755;SDS011;1893;52.526;13.360;2023-02-17T13:18:31;10.17;;;7.23;;
3755;SDS011;1893;52.526;13.360;2023-02-17T13:24:00;9.07;;;7.10;;
3755;SDS011;1893;52.526;13.360;2023-02-17T13:26:27;8.87;;;6.90;;
3755;SDS011;1893;52.526;13.360;2023-02-17T13:28:59;9.83;;;7.70;;
3755;SDS011;1893;52.526;13.360;2023-02-17T13:31:42;9.03;;;7.57;;
3755;SDS011;1893;52.526;13.360;2023-02-17T13:34:09;9.40;;;7.07;;
3755;SDS011;1893;52.526;13.360;2023-02-17T13:36:36;7.97;;;6.80;;
3755;SDS011;1893;52.526;13.360;2023-02-17T13:39:04;8.00;;;6.77;;
3755;SDS011;1893;52.526;13.360;2023-02-17T13:41:51;7.93;;;6.80;;
3755;SDS011;1893;52.526;13.360;2023-02-17T13:46:51;8.27;;;7.00;;
3755;SDS011;1893;52.526;13.360;2023-02-17T13:49:21;8.47;;;6.60;;
3755;SDS011;1893;52.526;13.360;2023-02-17T13:51:48;8.87;;;5.63;;
3755;SDS011;1893;52.526;13.360;2023-02-17T13:54:14;7.80;;;5.73;;
3755;SDS011;1893;52.526;13.360;2023-02-17T13:56:49;7.53;;;5.83;;
3755;SDS011;1893;52.526;13.360;2023-02-17T13:59:16;6.60;;;5.40;;
3755;SDS011;1893;52.526;13.360;2023-02-17T14:01:47;7.13;;;6.27;;
3755;SDS011;1893;52.526;13.360;2023-02-17T14:04:18;7.30;;;5.67;;
3755;SDS011;1893;52.526;13.360;2023-02-17T14:06:50;7.43;;;6.43;;
3755;SDS011;1893;52.526;13.360;2023-02-17T14:09:21;9.10;;;6.13;;
3755;SDS011;1893;52.526;13.360;2023-02-17T14:11:49;6.63;;;5.93;;
3755;SDS011;1893;52.526;13.360;2023-02-17T14:14:15;7.17;;;6.40;;
3755;SDS011;1893;52.526;13.360;2023-02-17T14:16:41;6.47;;;5.83;;
3755;SDS011;1893;52.526;13.360;2023-02-17T14:21:42;6.90;;;5.50;;
3755;SDS011;1893;52.526;13.360;2023-02-17T14:24:24;5.87;;;5.23;;
3755;SDS011;1893;52.526;13.360;2023-02-17T14:26:54;7.47;;;6.00;;
3755;SDS011;1893;52.526;13.360;2023-02-17T14:29:45;7.87;;;5.60;;
3755;SDS011;1893;52.526;13.360;2023-02-17T14:32:29;11.27;;;6.30;;
3755;SDS011;1893;52.526;13.360;2023-02-17T14:35:07;8.43;;;7.60;;
3755;SDS011;1893;52.526;13.360;2023-02-17T14:37:32;7.50;;;6.13;;
3755;SDS011;1893;52.526;13.360;2023-02-17T14:40:01;7.70;;;6.23;;
3755;SDS011;1893;52.526;13.360;2023-02-17T14:42:28;7.93;;;6.37;;
3755;SDS011;1893;52.526;13.360;2023-02-17T14:44:54;5.80;;;5.00;;
3755;SDS011;1893;52.526;13.360;2023-02-17T14:47:19;8.17;;;6.47;;
3755;SDS011;1893;52.526;13.360;2023-02-17T14:49:45;11.50;;;7.20;;
3755;SDS011;1893;52.526;13.360;2023-02-17T14:52:18;9.63;;;8.03;;
3755;SDS011;1893;52.526;13.360;2023-02-17T14:54:46;8.17;;;7.03;;
3755;SDS011;1893;52.526;13.360;2023-02-17T14:57:12;12.67;;;9.43;;
3755;SDS011;1893;52.526;13.360;2023-02-17T14:59:38;14.03;;;8.83;;
3755;SDS011;1893;52.526;13.360;2023-02-17T15:02:15;16.43;;;9.00;;
3755;SDS011;1893;52.526;13.360;2023-02-17T15:04:45;8.13;;;7.17;;
3755;SDS011;1893;52.526;13.360;2023-02-17T15:07:11;14.83;;;10.17;;
3755;SDS011;1893;52.526;13.360;2023-02-17T15:09:39;11.20;;;8.80;;
3755;SDS011;1893;52.526;13.360;2023-02-17T15:12:12;14.57;;;10.23;;
3755;SDS011;1893;52.526;13.360;2023-02-17T15:14:40;11.07;;;8.93;;
3755;SDS011;1893;52.526;13.360;2023-02-17T15:17:06;18.10;;;10.20;;
3755;SDS011;1893;52.526;13.360;2023-02-17T15:19:32;13.63;;;10.03;;
3755;SDS011;1893;52.526;13.360;2023-02-17T15:21:58;17.07;;;10.93;;
3755;SDS011;1893;52.526;13.360;2023-02-17T15:24:25;15.87;;;10.73;;
3755;SDS011;1893;52.526;13.360;2023-02-17T15:26:53;17.73;;;11.47;;
3755;SDS011;1893;52.526;13.360;2023-02-17T15:29:20;18.93;;;12.47;;
3755;SDS011;1893;52.526;13.360;2023-02-17T15:31:47;12.30;;;9.23;;
3755;SDS011;1893;52.526;13.360;2023-02-17T15:34:16;14.70;;;10.53;;
3755;SDS011;1893;52.526;13.360;2023-02-17T15:36:50;12.67;;;9.90;;
3755;SDS011;1893;52.526;13.360;2023-02-17T15:39:17;16.37;;;12.23;;
3755;SDS011;1893;52.526;13.360;2023-02-17T15:41:44;15.23;;;11.90;;
3755;SDS011;1893;52.526;13.360;2023-02-17T15:44:11;17.10;;;11.80;;
3755;SDS011;1893;52.526;13.360;2023-02-17T15:46:49;17.80;;;11.50;;
3755;SDS011;1893;52.526;13.360;2023-02-17T15:49:16;17.37;;;14.10;;
3755;SDS011;1893;52.526;13.360;2023-02-17T15:51:42;14.77;;;11.30;;
3755;SDS011;1893;52.526;13.360;2023-02-17T15:54:08;15.40;;;11.50;;
3755;SDS011;1893;52.526;13.360;2023-02-17T15:56:39;15.90;;;11.03;;
3755;SDS011;1893;52.526;13.360;2023-02-17T15:59:09;15.57;;;11.00;;
3755;SDS011;1893;52.526;13.360;2023-02-17T16:01:40;19.00;;;10.10;;
3755;SDS011;1893;52.526;13.360;2023-02-17T16:04:08;14.93;;;11.33;;
3755;SDS011;1893;52.526;13.360;2023-02-17T16:06:35;16.73;;;11.00;;
3755;SDS011;1893;52.526;13.360;2023-02-17T16:09:02;15.70;;;10.60;;
3755;SDS011;1893;52.526;13.360;2023-02-17T16:11:28;18.33;;;12.03;;
3755;SDS011;1893;52.526;13.360;2023-02-17T16:13:54;16.13;;;10.63;;
3755;SDS011;1893;52.526;13.360;2023-02-17T16:16:21;15.10;;;10.80;;
3755;SDS011;1893;52.526;13.360;2023-02-17T16:18:53;14.90;;;10.53;;